createdAt,value
2018-04-30T00:00:03.608Z,16.23
2018-04-30T00:01:03.635Z,16.32
2018-04-30T00:02:03.664Z,16.42
2018-04-30T00:03:03.691Z,16.13
2018-04-30T00:04:03.718Z,16.32
2018-04-30T00:05:03.746Z,16.03
2018-04-30T00:06:03.777Z,16.23
2018-04-30T00:07:03.830Z,16.23
2018-04-30T00:08:03.828Z,16.13
2018-04-30T00:09:03.855Z,16.42
2018-04-30T00:10:03.883Z,16.42
2018-04-30T00:11:03.911Z,16.32
2018-04-30T00:12:03.938Z,16.23
2018-04-30T00:13:03.965Z,16.32
2018-04-30T00:14:03.993Z,16.13
2018-04-30T00:15:04.021Z,16.13
2018-04-30T00:16:04.048Z,16.23
2018-04-30T00:17:04.076Z,16.32
2018-04-30T00:18:04.112Z,16.32
2018-04-30T00:19:04.130Z,16.32
2018-04-30T00:20:04.157Z,16.23
2018-04-30T00:21:04.185Z,16.23
2018-04-30T00:22:04.236Z,16.13
2018-04-30T00:23:04.249Z,16.23
2018-04-30T00:24:04.267Z,16.23
2018-04-30T00:25:04.295Z,16.42
2018-04-30T00:26:04.324Z,16.23
2018-04-30T00:27:04.351Z,16.52
2018-04-30T00:28:04.377Z,16.61
2018-04-30T00:29:04.405Z,16.13
2018-04-30T00:30:04.433Z,16.13
2018-04-30T00:31:04.464Z,16.13
2018-04-30T00:32:04.490Z,16.03
2018-04-30T00:33:04.520Z,16.13
2018-04-30T00:34:04.543Z,16.32
2018-04-30T00:35:04.570Z,16.32
2018-04-30T00:36:04.597Z,16.23
2018-04-30T00:37:04.625Z,16.13
2018-04-30T00:38:04.652Z,16.23
2018-04-30T00:39:04.680Z,16.13
2018-04-30T00:40:04.710Z,16.03
2018-04-30T00:41:04.769Z,16.42
2018-04-30T00:42:04.762Z,16.13
2018-04-30T00:43:04.793Z,16.13
2018-04-30T00:44:04.818Z,16.13
2018-04-30T00:45:04.844Z,16.23
2018-04-30T00:46:04.875Z,16.23
2018-04-30T00:47:04.900Z,16.13
2018-04-30T00:48:04.926Z,16.23
2018-04-30T00:49:04.954Z,16.23
2018-04-30T00:50:04.982Z,16.32
2018-04-30T00:51:05.009Z,16.42
2018-04-30T00:52:05.036Z,16.42
2018-04-30T00:53:05.063Z,16.42
2018-04-30T00:54:05.122Z,16.32
2018-04-30T00:55:05.120Z,16.23
2018-04-30T00:56:05.146Z,16.23
2018-04-30T00:57:05.174Z,16.23
2018-04-30T00:58:05.233Z,16.23
2018-04-30T00:59:05.229Z,16.42
2018-04-30T01:00:05.255Z,16.23
2018-04-30T01:01:05.283Z,16.32
2018-04-30T01:02:05.311Z,16.32
2018-04-30T01:03:05.339Z,16.32
2018-04-30T01:04:05.385Z,16.42
2018-04-30T01:05:05.441Z,16.42
2018-04-30T01:06:05.421Z,16.32
2018-04-30T01:07:05.461Z,16.23
2018-04-30T01:08:05.498Z,16.23
2018-04-30T01:09:05.504Z,16.13
2018-04-30T01:10:05.533Z,16.23
2018-04-30T01:11:05.558Z,16.23
2018-04-30T01:12:05.585Z,16.32
2018-04-30T01:13:05.613Z,16.03
2018-04-30T01:14:05.640Z,16.32
2018-04-30T01:15:05.682Z,16.32
2018-04-30T01:16:05.694Z,16.32
2018-04-30T01:17:05.723Z,16.23
2018-04-30T01:18:05.750Z,16.23
2018-04-30T01:19:05.783Z,16.23
2018-04-30T01:20:05.807Z,16.23
2018-04-30T01:21:05.832Z,16.23
2018-04-30T01:22:05.862Z,16.32
2018-04-30T01:23:05.888Z,16.42
2018-04-30T01:24:05.919Z,16.23
2018-04-30T01:25:05.942Z,16.23
2018-04-30T01:26:05.970Z,16.23
2018-04-30T01:27:06.000Z,16.32
2018-04-30T01:28:06.024Z,16.13
2018-04-30T01:29:06.052Z,16.23
2018-04-30T01:30:06.080Z,16.32
2018-04-30T01:31:06.107Z,16.23
2018-04-30T01:32:06.134Z,16.23
2018-04-30T01:33:06.161Z,16.13
2018-04-30T01:34:06.189Z,16.13
2018-04-30T01:35:06.217Z,16.23
2018-04-30T01:36:06.280Z,16.32
2018-04-30T01:37:06.272Z,16.32
2018-04-30T01:38:06.299Z,16.03
2018-04-30T01:39:06.328Z,16.03
2018-04-30T01:40:06.354Z,16.13
2018-04-30T01:41:06.381Z,16.23
2018-04-30T01:42:06.452Z,16.23
2018-04-30T01:43:06.455Z,16.13
2018-04-30T01:44:06.464Z,16.23
2018-04-30T01:45:06.491Z,16.03
2018-04-30T01:46:06.520Z,16.13
2018-04-30T01:47:06.547Z,16.32
2018-04-30T01:48:06.573Z,16.23
2018-04-30T01:49:06.601Z,16.23
2018-04-30T01:50:06.633Z,16.03
2018-04-30T01:51:06.656Z,16.23
2018-04-30T01:52:06.683Z,16.32
2018-04-30T01:53:06.711Z,16.32
2018-04-30T01:54:06.738Z,16.13
2018-04-30T01:55:06.766Z,16.32
2018-04-30T01:56:06.792Z,16.22
2018-04-30T01:57:06.843Z,16.12
2018-04-30T01:58:06.848Z,16.12
2018-04-30T01:59:06.875Z,16.51
2018-04-30T02:00:06.904Z,16.22
2018-04-30T02:01:06.930Z,16.51
2018-04-30T02:02:06.958Z,16.51
2018-04-30T02:03:06.985Z,16.41
2018-04-30T02:04:07.011Z,16.41
2018-04-30T02:05:07.040Z,16.41
2018-04-30T02:06:07.068Z,16.51
2018-04-30T02:07:07.108Z,16.31
2018-04-30T02:08:07.124Z,16.22
2018-04-30T02:09:07.150Z,16.03
2018-04-30T02:10:07.176Z,16.51
2018-04-30T02:11:07.204Z,16.31
2018-04-30T02:12:07.233Z,16.51
2018-04-30T02:13:07.283Z,16.03
2018-04-30T02:14:07.286Z,16.12
2018-04-30T02:15:07.313Z,16.12
2018-04-30T02:16:07.340Z,16.41
2018-04-30T02:17:07.368Z,16.12
2018-04-30T02:18:07.396Z,16.51
2018-04-30T02:19:07.422Z,16.41
2018-04-30T02:20:07.449Z,16.51
2018-04-30T02:21:07.477Z,16.41
2018-04-30T02:22:07.505Z,16.51
2018-04-30T02:23:07.537Z,16.41
2018-04-30T02:24:07.559Z,16.41
2018-04-30T02:25:07.649Z,16.41
2018-04-30T02:26:07.640Z,16.61
2018-04-30T02:27:07.641Z,16.61
2018-04-30T02:28:07.668Z,16.41
2018-04-30T02:29:07.699Z,16.12
2018-04-30T02:30:07.724Z,16.12
2018-04-30T02:31:07.750Z,16.22
2018-04-30T02:32:07.779Z,16.12
2018-04-30T02:33:07.805Z,16.31
2018-04-30T02:34:07.832Z,16.31
2018-04-30T02:35:07.864Z,16.31
2018-04-30T02:36:07.888Z,16.31
2018-04-30T02:37:07.913Z,16.32
2018-04-30T02:38:07.942Z,16.12
2018-04-30T02:39:07.969Z,16.13
2018-04-30T02:40:07.997Z,16.03
2018-04-30T02:41:08.023Z,16.32
2018-04-30T02:42:08.051Z,16.22
2018-04-30T02:43:08.078Z,16.23
2018-04-30T02:44:08.106Z,16.32
2018-04-30T02:45:08.135Z,16.12
2018-04-30T02:46:08.173Z,16.31
2018-04-30T02:47:08.188Z,16.13
2018-04-30T02:48:08.215Z,16.03
2018-04-30T02:49:08.246Z,16.13
2018-04-30T02:50:08.269Z,16.32
2018-04-30T02:51:08.296Z,16.32
2018-04-30T02:52:08.324Z,16.03
2018-04-30T02:53:08.350Z,16.03
2018-04-30T02:54:08.378Z,15.94
2018-04-30T02:55:08.406Z,16.03
2018-04-30T02:56:08.432Z,16.13
2018-04-30T02:57:08.460Z,16.32
2018-04-30T02:58:08.488Z,16.03
2018-04-30T02:59:08.516Z,15.74
2018-04-30T03:00:08.542Z,16.23
2018-04-30T03:01:08.574Z,16.03
2018-04-30T03:02:08.598Z,15.83
2018-04-30T03:03:08.627Z,16.23
2018-04-30T03:04:08.654Z,15.94
2018-04-30T03:05:08.679Z,15.94
2018-04-30T03:06:08.707Z,15.94
2018-04-30T03:07:08.734Z,15.84
2018-04-30T03:08:08.760Z,16.13
2018-04-30T03:09:08.841Z,16.03
2018-04-30T03:10:08.820Z,16.03
2018-04-30T03:11:08.844Z,16.13
2018-04-30T03:12:08.869Z,16.13
2018-04-30T03:13:08.897Z,16.13
2018-04-30T03:14:08.925Z,16.03
2018-04-30T03:15:08.953Z,16.13
2018-04-30T03:16:08.981Z,15.74
2018-04-30T03:17:09.011Z,15.94
2018-04-30T03:18:09.035Z,15.65
2018-04-30T03:19:09.061Z,15.65
2018-04-30T03:20:09.092Z,15.74
2018-04-30T03:21:09.116Z,15.74
2018-04-30T03:22:09.144Z,15.65
2018-04-30T03:23:09.172Z,15.65
2018-04-30T03:24:09.197Z,15.55
2018-04-30T03:25:09.227Z,15.74
2018-04-30T03:26:09.253Z,15.74
2018-04-30T03:27:09.282Z,15.74
2018-04-30T03:28:09.307Z,15.74
2018-04-30T03:29:09.335Z,15.74
2018-04-30T03:30:09.386Z,15.74
2018-04-30T03:31:09.430Z,15.74
2018-04-30T03:32:09.417Z,15.74
2018-04-30T03:33:09.445Z,15.84
2018-04-30T03:34:09.473Z,15.94
2018-04-30T03:35:09.504Z,15.74
2018-04-30T03:36:09.528Z,15.74
2018-04-30T03:37:09.554Z,15.65
2018-04-30T03:38:09.582Z,15.75
2018-04-30T03:42:46.016Z,15.17
2018-04-30T03:43:45.995Z,15.08
2018-04-30T03:45:51.641Z,15.17
2018-04-30T03:46:51.662Z,15.36
2018-04-30T03:48:44.668Z,15.18
2018-04-30T03:49:44.584Z,15.17
2018-04-30T03:51:39.241Z,15.18
2018-04-30T03:52:39.191Z,15.37
2018-04-30T03:54:32.085Z,14.98
2018-04-30T03:55:32.107Z,14.89
2018-04-30T03:57:25.059Z,14.51
2018-04-30T03:58:25.023Z,14.51
2018-04-30T04:00:30.716Z,14.41
2018-04-30T04:01:30.695Z,14.32
2018-04-30T04:03:23.614Z,14.51
2018-04-30T04:04:23.613Z,14.41
2018-04-30T04:06:29.287Z,14.42
2018-04-30T04:07:29.285Z,14.71
2018-04-30T04:09:22.211Z,14.23
2018-04-30T04:10:22.203Z,14.32
2018-04-30T04:12:15.976Z,14.70
2018-04-30T04:13:15.976Z,14.71
2018-04-30T04:15:21.648Z,14.32
2018-04-30T04:16:21.647Z,14.32
2018-04-30T04:18:14.550Z,14.61
2018-04-30T04:19:14.565Z,14.51
2018-04-30T04:21:09.183Z,14.51
2018-04-30T04:22:09.207Z,14.61
2018-04-30T04:24:02.076Z,14.51
2018-04-30T04:25:02.097Z,14.42
2018-04-30T04:26:55.015Z,14.61
2018-04-30T04:27:55.015Z,14.71
2018-04-30T04:29:47.931Z,14.51
2018-04-30T04:30:47.932Z,14.61
2018-04-30T04:32:40.850Z,14.81
2018-04-30T04:33:40.849Z,14.51
2018-04-30T04:35:46.565Z,15.10
2018-04-30T04:36:46.601Z,15.19
2018-04-30T04:39:06.686Z,15.00
2018-04-30T04:40:06.691Z,15.09
2018-04-30T04:42:12.363Z,15.09
2018-04-30T04:43:12.367Z,14.80
2018-04-30T04:45:05.304Z,14.90
2018-04-30T04:46:05.334Z,14.71
2018-04-30T04:48:11.791Z,15.00
2018-04-30T04:49:11.797Z,15.09
2018-04-30T04:51:04.747Z,15.28
2018-04-30T04:52:04.714Z,15.19
2018-04-30T04:53:58.481Z,15.28
2018-04-30T04:54:58.481Z,15.19
2018-04-30T04:57:05.857Z,15.09
2018-04-30T04:58:05.851Z,15.28
2018-04-30T05:00:38.736Z,15.28
2018-04-30T05:01:38.733Z,15.48
2018-04-30T05:03:46.104Z,15.48
2018-04-30T05:04:46.102Z,15.96
2018-04-30T05:06:53.475Z,15.96
2018-04-30T05:07:53.474Z,15.48
2018-04-30T05:09:46.475Z,15.58
2018-04-30T05:10:46.464Z,15.77
2018-04-30T05:12:39.305Z,15.48
2018-04-30T05:13:39.305Z,15.58
2018-04-30T05:15:32.224Z,15.48
2018-04-30T05:16:32.223Z,15.38
2018-04-30T05:18:25.142Z,15.58
2018-04-30T05:19:25.187Z,15.58
2018-04-30T05:21:45.268Z,15.48
2018-04-30T05:22:45.269Z,15.48
2018-04-30T05:24:38.184Z,15.38
2018-04-30T05:25:38.181Z,15.38
2018-04-30T05:27:31.100Z,15.48
2018-04-30T05:28:31.102Z,15.48
2018-04-30T05:31:03.132Z,15.28
2018-04-30T05:32:03.132Z,15.58
2018-04-30T05:34:23.257Z,15.38
2018-04-30T05:35:23.265Z,15.38
2018-04-30T05:37:16.196Z,15.48
2018-04-30T05:38:16.195Z,15.48
2018-04-30T05:40:09.121Z,15.38
2018-04-30T05:41:09.114Z,15.28
2018-04-30T05:43:02.886Z,15.48
2018-04-30T05:44:02.881Z,15.38
2018-04-30T05:45:55.779Z,15.48
2018-04-30T05:46:55.797Z,15.48
2018-04-30T05:48:50.422Z,15.58
2018-04-30T05:49:50.421Z,15.58
2018-04-30T05:51:44.191Z,15.86
2018-04-30T05:52:44.195Z,15.77
2018-04-30T05:54:37.123Z,15.67
2018-04-30T05:55:37.125Z,15.96
2018-04-30T05:57:30.040Z,15.77
2018-04-30T05:58:30.043Z,15.67
2018-04-30T06:00:37.420Z,15.86
2018-04-30T06:01:37.407Z,15.67
2018-04-30T06:04:09.423Z,15.67
2018-04-30T06:05:09.443Z,15.77
2018-04-30T06:07:16.815Z,15.96
2018-04-30T06:08:17.454Z,16.06
2018-04-30T06:10:36.940Z,15.96
2018-04-30T06:11:36.944Z,15.67
2018-04-30T06:13:29.858Z,15.77
2018-04-30T06:14:29.952Z,15.77
2018-04-30T06:16:22.808Z,15.77
2018-04-30T06:17:22.780Z,15.77
2018-04-30T06:19:42.907Z,15.58
2018-04-30T06:20:42.906Z,15.77
2018-04-30T06:22:50.276Z,15.86
2018-04-30T06:23:50.275Z,15.58
2018-04-30T06:25:43.195Z,15.58
2018-04-30T06:26:43.293Z,15.77
2018-04-30T06:28:36.938Z,15.58
2018-04-30T06:29:36.958Z,15.77
2018-04-30T06:31:44.329Z,15.96
2018-04-30T06:32:44.345Z,15.77
2018-04-30T06:35:04.458Z,15.86
2018-04-30T06:36:04.453Z,15.77
2018-04-30T06:38:24.560Z,15.96
2018-04-30T06:39:24.609Z,16.06
2018-04-30T06:41:44.733Z,16.16
2018-04-30T06:42:44.707Z,16.16
2018-04-30T06:44:52.110Z,15.96
2018-04-30T06:45:52.107Z,16.16
2018-04-30T06:47:46.727Z,16.16
2018-04-30T06:48:46.725Z,16.25
2018-04-30T06:50:54.100Z,16.35
2018-04-30T06:51:54.098Z,16.25
2018-04-30T06:53:47.016Z,16.35
2018-04-30T06:54:47.015Z,16.06
2018-04-30T06:56:40.443Z,16.25
2018-04-30T06:57:40.432Z,16.25
2018-04-30T06:59:33.354Z,16.36
2018-04-30T07:00:33.351Z,16.16
2018-04-30T07:02:27.096Z,16.36
2018-04-30T07:03:27.116Z,16.46
2018-04-30T07:05:47.245Z,16.36
2018-04-30T07:06:47.254Z,16.36
2018-04-30T07:08:40.168Z,16.36
2018-04-30T07:09:40.279Z,16.36
2018-04-30T07:11:33.606Z,16.36
2018-04-30T07:12:33.604Z,16.36
2018-04-30T07:14:53.737Z,16.36
2018-04-30T07:15:53.727Z,16.36
2018-04-30T07:18:25.761Z,16.36
2018-04-30T07:19:25.779Z,16.16
2018-04-30T07:21:45.883Z,16.26
2018-04-30T07:22:45.916Z,16.26
2018-04-30T07:25:06.014Z,16.16
2018-04-30T07:26:06.010Z,15.97
2018-04-30T07:28:13.408Z,16.06
2018-04-30T07:29:13.384Z,15.58
2018-04-30T07:31:06.305Z,16.26
2018-04-30T07:32:06.324Z,16.06
2018-04-30T07:34:00.914Z,15.78
2018-04-30T07:35:00.928Z,15.68
2018-04-30T07:36:54.724Z,15.78
2018-04-30T07:37:54.694Z,15.68
2018-04-30T07:40:14.815Z,15.68
2018-04-30T07:41:14.822Z,16.06
2018-04-30T07:43:22.194Z,15.97
2018-04-30T07:44:22.194Z,16.16
2018-04-30T07:46:16.163Z,16.26
2018-04-30T07:47:15.149Z,16.06
2018-04-30T07:49:08.075Z,16.06
2018-04-30T07:50:08.064Z,16.36
2018-04-30T07:52:01.808Z,16.36
2018-04-30T07:53:01.828Z,16.26
2018-04-30T07:55:09.200Z,16.16
2018-04-30T07:56:09.198Z,16.26
2018-04-30T07:58:02.116Z,16.16
2018-04-30T07:59:02.116Z,16.46
2018-04-30T08:00:55.888Z,16.36
2018-04-30T08:01:55.881Z,16.46
2018-04-30T08:04:15.988Z,16.46
2018-04-30T08:05:16.008Z,16.16
2018-04-30T08:07:35.304Z,16.26
2018-04-30T08:08:35.284Z,16.16
2018-04-30T08:10:28.203Z,16.16
2018-04-30T08:11:28.203Z,16.55
2018-04-30T08:13:21.123Z,16.36
2018-04-30T08:14:21.121Z,16.36
2018-04-30T08:16:41.251Z,16.16
2018-04-30T08:17:41.246Z,16.16
2018-04-30T08:20:01.377Z,16.55
2018-04-30T08:21:01.377Z,16.64
2018-04-30T08:23:21.500Z,16.55
2018-04-30T08:24:21.496Z,16.55
2018-04-30T08:26:41.622Z,16.46
2018-04-30T08:27:41.620Z,16.46
2018-04-30T08:30:01.748Z,16.55
2018-04-30T08:31:01.744Z,16.55
2018-04-30T08:33:21.870Z,16.16
2018-04-30T08:34:21.870Z,16.16
2018-04-30T08:36:42.092Z,16.26
2018-04-30T08:37:41.995Z,16.16
2018-04-30T08:40:02.124Z,16.16
2018-04-30T08:41:02.135Z,16.26
2018-04-30T08:43:09.475Z,16.46
2018-04-30T08:44:09.492Z,16.16
2018-04-30T08:46:02.448Z,16.35
2018-04-30T08:47:02.410Z,16.25
2018-04-30T08:48:55.328Z,16.36
2018-04-30T08:49:55.330Z,16.25
2018-04-30T08:52:15.691Z,16.35
2018-04-30T08:53:15.708Z,16.35
2018-04-30T08:55:10.301Z,16.54
2018-04-30T08:56:10.299Z,16.16
2018-04-30T08:58:03.194Z,16.36
2018-04-30T08:59:03.216Z,16.36
2018-04-30T09:00:56.136Z,16.26
2018-04-30T09:01:56.134Z,16.25
2018-04-30T09:04:16.267Z,16.46
2018-04-30T09:05:16.259Z,16.46
2018-04-30T09:07:36.425Z,15.97
2018-04-30T09:08:36.415Z,15.97
2018-04-30T09:10:56.504Z,15.97
2018-04-30T09:11:56.515Z,16.06
2018-04-30T09:14:03.884Z,16.06
2018-04-30T09:15:03.930Z,16.06
2018-04-30T09:16:56.802Z,16.16
2018-04-30T09:17:56.798Z,16.16
2018-04-30T09:19:49.719Z,15.97
2018-04-30T09:20:49.716Z,16.46
2018-04-30T09:23:10.287Z,16.26
2018-04-30T09:24:09.841Z,16.46
2018-04-30T09:26:02.777Z,16.46
2018-04-30T09:27:02.769Z,16.26
2018-04-30T09:28:55.685Z,16.46
2018-04-30T09:29:55.694Z,16.26
2018-04-30T09:32:03.101Z,16.26
2018-04-30T09:33:03.067Z,16.36
2018-04-30T09:35:23.167Z,16.36
2018-04-30T09:36:23.189Z,16.46
2018-04-30T09:38:30.558Z,16.34
2018-04-30T09:39:30.560Z,16.91
2018-04-30T09:41:23.497Z,17.10
2018-04-30T09:42:23.484Z,17.29
2018-04-30T09:44:15.626Z,17.48
2018-04-30T09:45:15.602Z,17.97
2018-04-30T09:47:22.674Z,17.76
2018-04-30T09:48:22.675Z,18.05
2018-04-30T09:50:14.811Z,17.96
2018-04-30T09:51:14.810Z,18.05
2018-04-30T09:53:07.720Z,17.96
2018-04-30T09:54:07.720Z,17.85
2018-04-30T09:56:28.323Z,17.85
2018-04-30T09:57:28.344Z,18.04
2018-04-30T09:59:33.331Z,18.14
2018-04-30T10:00:32.352Z,18.53
2018-04-30T10:02:24.483Z,18.43
2018-04-30T10:03:24.482Z,18.43
2018-04-30T10:05:26.647Z,18.33
2018-04-30T10:06:26.676Z,18.52
2018-04-30T10:08:18.568Z,19.00
2018-04-30T10:09:18.566Z,18.71
2018-04-30T10:11:23.227Z,19.09
2018-04-30T10:12:23.229Z,19.18
2018-04-30T10:14:16.991Z,18.99
2018-04-30T10:15:16.990Z,19.09
2018-04-30T10:17:09.065Z,19.28
2018-04-30T10:18:09.093Z,19.28
2018-04-30T10:20:01.984Z,19.47
2018-04-30T10:21:01.977Z,19.18
2018-04-30T10:22:54.894Z,19.46
2018-04-30T10:23:54.983Z,19.47
2018-04-30T10:25:47.808Z,19.47
2018-04-30T10:26:47.808Z,19.18
2018-04-30T10:28:40.891Z,19.27
2018-04-30T10:29:40.734Z,19.27
2018-04-30T10:31:33.671Z,19.56
2018-04-30T10:32:33.657Z,19.56
2018-04-30T10:35:05.683Z,19.27
2018-04-30T10:36:05.678Z,19.46
2018-04-30T10:37:58.636Z,19.65
2018-04-30T10:38:58.592Z,19.65
2018-04-30T10:40:51.509Z,19.56
2018-04-30T10:41:51.506Z,19.75
2018-04-30T10:43:44.401Z,19.37
2018-04-30T10:44:44.422Z,19.65
2018-04-30T10:46:36.446Z,19.55
2018-04-30T10:47:36.445Z,19.55
2018-04-30T10:49:28.577Z,19.55
2018-04-30T10:50:28.577Z,19.65
2018-04-30T10:52:45.362Z,19.56
2018-04-30T10:53:45.363Z,19.55
2018-04-30T10:55:39.982Z,19.07
2018-04-30T10:56:39.981Z,19.37
2018-04-30T10:58:34.823Z,19.46
2018-04-30T10:59:34.821Z,19.46
2018-04-30T11:01:29.431Z,19.27
2018-04-30T11:02:29.434Z,19.56
2018-04-30T11:04:22.344Z,18.98
2018-04-30T11:05:22.347Z,19.08
2018-04-30T11:07:16.108Z,19.08
2018-04-30T11:08:16.120Z,19.08
2018-04-30T11:10:09.020Z,19.08
2018-04-30T11:11:09.056Z,19.18
2018-04-30T11:13:01.909Z,19.08
2018-04-30T11:14:01.929Z,19.36
2018-04-30T11:15:54.843Z,19.46
2018-04-30T11:16:54.841Z,19.46
2018-04-30T11:18:48.603Z,19.45
2018-04-30T11:19:48.603Z,19.45
2018-04-30T11:21:41.516Z,19.26
2018-04-30T11:22:41.559Z,19.18
2018-04-30T11:24:34.410Z,19.36
2018-04-30T11:25:34.428Z,19.45
2018-04-30T11:27:27.341Z,19.65
2018-04-30T11:28:27.339Z,19.55
2018-04-30T11:30:21.103Z,19.55
2018-04-30T11:31:21.103Z,19.65
2018-04-30T11:33:14.014Z,19.55
2018-04-30T11:34:14.023Z,19.45
2018-04-30T11:36:06.908Z,19.74
2018-04-30T11:37:06.925Z,20.02
2018-04-30T11:38:59.925Z,20.21
2018-04-30T11:39:59.920Z,20.31
2018-04-30T11:41:53.600Z,20.02
2018-04-30T11:42:53.616Z,20.02
2018-04-30T11:44:46.510Z,19.36
2018-04-30T11:45:46.509Z,19.26
2018-04-30T11:47:39.514Z,19.18
2018-04-30T11:48:39.421Z,19.46
2018-04-30T11:50:32.335Z,19.09
2018-04-30T11:51:32.333Z,18.51
2018-04-30T11:53:26.097Z,18.42
2018-04-30T11:54:26.093Z,18.42
2018-04-30T11:56:19.008Z,17.94
2018-04-30T11:57:19.005Z,18.04
2018-04-30T11:59:11.919Z,17.85
2018-04-30T12:00:11.919Z,17.66
2018-04-30T12:02:04.831Z,17.57
2018-04-30T12:03:04.832Z,17.38
2018-04-30T12:04:58.597Z,17.19
2018-04-30T12:05:58.591Z,17.19
2018-04-30T12:07:51.524Z,17.57
2018-04-30T12:08:51.537Z,17.10
2018-04-30T12:10:44.450Z,17.10
2018-04-30T12:11:44.449Z,17.10
2018-04-30T12:12:44.478Z,17.29
2018-04-30T12:13:44.504Z,17.19
2018-04-30T12:14:44.564Z,17.00
2018-04-30T12:15:44.558Z,16.90
2018-04-30T12:16:44.585Z,16.71
2018-04-30T12:17:44.612Z,16.81
2018-04-30T12:18:44.641Z,16.71
2018-04-30T12:19:44.666Z,16.62
2018-04-30T12:20:44.694Z,16.62
2018-04-30T12:21:44.721Z,16.72
2018-04-30T12:22:44.748Z,16.72
2018-04-30T12:23:44.777Z,16.72
2018-04-30T12:24:44.802Z,16.62
2018-04-30T12:25:44.829Z,16.82
2018-04-30T12:26:44.885Z,16.82
2018-04-30T12:27:44.885Z,16.72
2018-04-30T12:28:44.913Z,17.01
2018-04-30T12:29:44.954Z,16.62
2018-04-30T12:30:44.966Z,16.62
2018-04-30T12:31:44.994Z,16.72
2018-04-30T12:32:45.021Z,16.91
2018-04-30T12:33:45.047Z,16.62
2018-04-30T12:34:45.077Z,16.62
2018-04-30T12:35:45.103Z,16.91
2018-04-30T12:36:45.131Z,16.52
2018-04-30T12:37:45.163Z,16.82
2018-04-30T12:38:45.230Z,16.52
2018-04-30T12:39:45.229Z,16.72
2018-04-30T12:40:45.240Z,16.72
2018-04-30T12:41:45.284Z,16.62
2018-04-30T12:42:45.294Z,16.52
2018-04-30T12:43:45.327Z,16.53
2018-04-30T12:44:45.350Z,16.82
2018-04-30T12:45:45.377Z,16.53
2018-04-30T12:46:45.437Z,16.72
2018-04-30T12:47:45.431Z,16.82
2018-04-30T12:48:45.461Z,16.63
2018-04-30T12:49:45.554Z,16.72
2018-04-30T12:50:45.538Z,16.72
2018-04-30T12:51:45.541Z,16.63
2018-04-30T12:52:45.573Z,16.72
2018-04-30T12:53:45.597Z,16.63
2018-04-30T12:54:45.626Z,16.72
2018-04-30T12:55:45.651Z,16.63
2018-04-30T12:56:45.679Z,17.11
2018-04-30T12:57:45.742Z,16.63
2018-04-30T12:58:45.733Z,16.63
2018-04-30T12:59:45.761Z,16.82
2018-04-30T13:00:45.815Z,16.63
2018-04-30T13:01:45.815Z,16.82
2018-04-30T13:02:45.849Z,16.72
2018-04-30T13:03:45.871Z,16.63
2018-04-30T13:04:45.975Z,16.63
2018-04-30T13:05:45.925Z,16.63
2018-04-30T13:06:45.960Z,16.72
2018-04-30T13:07:45.986Z,16.82
2018-04-30T13:08:46.008Z,16.82
2018-04-30T13:09:46.036Z,17.02
2018-04-30T13:10:46.062Z,16.92
2018-04-30T13:11:46.091Z,16.92
2018-04-30T13:12:46.118Z,16.82
2018-04-30T13:13:46.145Z,16.82
2018-04-30T13:14:46.173Z,16.63
2018-04-30T13:15:46.201Z,16.82
2018-04-30T13:16:46.255Z,16.92
2018-04-30T13:17:46.257Z,16.82
2018-04-30T13:18:46.285Z,16.63
2018-04-30T13:19:46.311Z,16.63
2018-04-30T13:20:46.375Z,16.63
2018-04-30T13:21:46.369Z,16.63
2018-04-30T13:22:46.394Z,16.63
2018-04-30T13:23:46.429Z,16.82
2018-04-30T13:24:46.449Z,16.82
2018-04-30T13:25:46.477Z,16.63
2018-04-30T13:26:46.503Z,16.82
2018-04-30T13:27:46.533Z,16.82
2018-04-30T13:28:46.611Z,16.72
2018-04-30T13:29:46.586Z,16.72
2018-04-30T13:30:46.616Z,16.63
2018-04-30T13:31:46.645Z,16.82
2018-04-30T13:32:46.672Z,16.63
2018-04-30T13:33:46.698Z,16.82
2018-04-30T13:34:46.760Z,16.92
2018-04-30T13:35:46.753Z,16.82
2018-04-30T13:36:46.780Z,16.63
2018-04-30T13:37:46.807Z,16.82
2018-04-30T13:38:46.835Z,16.93
2018-04-30T13:39:46.862Z,16.82
2018-04-30T13:40:46.890Z,17.02
2018-04-30T13:41:46.925Z,17.02
2018-04-30T13:42:46.945Z,17.02
2018-04-30T13:43:46.975Z,16.82
2018-04-30T13:44:47.001Z,16.82
2018-04-30T13:45:47.027Z,16.63
2018-04-30T13:46:47.056Z,16.82
2018-04-30T13:47:47.085Z,16.82
2018-04-30T13:48:47.111Z,16.72
2018-04-30T13:49:47.139Z,16.63
2018-04-30T13:50:47.211Z,16.74
2018-04-30T13:51:47.193Z,16.74
2018-04-30T13:52:47.221Z,16.54
2018-04-30T13:53:47.248Z,16.44
2018-04-30T13:54:47.276Z,16.53
2018-04-30T13:55:47.304Z,16.35
2018-04-30T13:56:47.363Z,16.54
2018-04-30T13:57:47.359Z,16.54
2018-04-30T13:58:47.388Z,16.54
2018-04-30T13:59:47.414Z,16.63
2018-04-30T14:00:47.445Z,16.54
2018-04-30T14:01:47.486Z,16.63
2018-04-30T14:02:47.498Z,16.64
2018-04-30T14:03:47.547Z,16.54
2018-04-30T14:04:47.552Z,16.54
2018-04-30T14:05:47.581Z,16.54
2018-04-30T14:06:47.607Z,16.44
2018-04-30T14:07:47.637Z,16.44
2018-04-30T14:08:47.664Z,16.35
2018-04-30T14:09:47.694Z,16.24
2018-04-30T14:10:47.718Z,16.14
2018-04-30T14:11:47.746Z,16.14
2018-04-30T14:12:47.776Z,16.25
2018-04-30T14:13:47.800Z,16.25
2018-04-30T14:14:47.830Z,16.44
2018-04-30T14:15:47.856Z,16.35
2018-04-30T14:16:47.887Z,16.35
2018-04-30T14:17:47.914Z,16.35
2018-04-30T14:18:47.962Z,16.25
2018-04-30T14:19:47.966Z,16.34
2018-04-30T14:20:47.995Z,16.44
2018-04-30T14:21:48.023Z,16.54
2018-04-30T14:22:48.052Z,16.64
2018-04-30T14:23:48.077Z,16.64
2018-04-30T14:24:48.106Z,16.25
2018-04-30T14:25:48.133Z,16.53
2018-04-30T14:26:48.163Z,16.16
2018-04-30T14:27:48.194Z,16.54
2018-04-30T14:28:48.215Z,16.54
2018-04-30T14:29:48.243Z,15.95
2018-04-30T14:30:48.273Z,16.34
2018-04-30T14:31:48.298Z,16.06
2018-04-30T14:32:48.329Z,16.44
2018-04-30T14:33:48.353Z,16.53
2018-04-30T14:34:48.381Z,16.35
2018-04-30T14:35:48.412Z,16.54
2018-04-30T14:36:48.459Z,16.53
2018-04-30T14:37:48.466Z,16.24
2018-04-30T14:38:48.496Z,16.16
2018-04-30T14:39:48.520Z,16.14
2018-04-30T14:40:48.547Z,16.14
2018-04-30T14:41:48.575Z,16.16
2018-04-30T14:42:48.604Z,16.06
2018-04-30T14:43:48.630Z,16.05
2018-04-30T14:44:48.658Z,16.16
2018-04-30T14:45:48.685Z,16.34
2018-04-30T14:46:48.712Z,16.34
2018-04-30T14:47:48.742Z,16.44
2018-04-30T14:48:48.775Z,16.35
2018-04-30T14:49:48.799Z,16.35
2018-04-30T14:50:48.823Z,16.35
2018-04-30T14:51:48.851Z,16.35
2018-04-30T14:52:48.883Z,16.25
2018-04-30T14:53:48.919Z,16.34
2018-04-30T14:54:48.934Z,16.35
2018-04-30T14:55:48.962Z,16.25
2018-04-30T14:56:49.070Z,16.25
2018-04-30T14:57:49.018Z,16.25
2018-04-30T14:58:49.045Z,16.34
2018-04-30T14:59:49.072Z,16.25
2018-04-30T15:00:49.101Z,16.06
2018-04-30T15:01:49.127Z,16.25
2018-04-30T15:02:49.157Z,16.24
2018-04-30T15:03:49.186Z,16.14
2018-04-30T15:04:49.212Z,16.35
2018-04-30T15:05:49.238Z,16.34
2018-04-30T15:06:49.273Z,16.35
2018-04-30T15:07:49.299Z,16.34
2018-04-30T15:08:49.323Z,16.44
2018-04-30T15:09:49.348Z,16.16
2018-04-30T15:10:49.377Z,16.14
2018-04-30T15:11:49.404Z,16.34
2018-04-30T15:12:49.437Z,16.35
2018-04-30T15:13:49.459Z,16.14
2018-04-30T15:14:49.488Z,16.44
2018-04-30T15:15:49.515Z,16.16
2018-04-30T15:16:49.546Z,16.14
2018-04-30T15:17:49.574Z,16.16
2018-04-30T15:18:49.598Z,16.14
2018-04-30T15:19:49.625Z,16.14
2018-04-30T15:20:49.653Z,16.14
2018-04-30T15:21:49.680Z,16.05
2018-04-30T15:22:49.710Z,15.96
2018-04-30T15:23:49.736Z,16.16
2018-04-30T15:24:49.764Z,16.25
2018-04-30T15:25:49.791Z,16.24
2018-04-30T15:26:49.819Z,16.05
2018-04-30T15:27:49.870Z,15.86
2018-04-30T15:28:49.879Z,16.14
2018-04-30T15:29:49.901Z,16.05
2018-04-30T15:30:49.929Z,16.06
2018-04-30T15:31:49.957Z,16.05
2018-04-30T15:32:49.986Z,16.06
2018-04-30T15:33:50.015Z,16.25
2018-04-30T15:34:50.042Z,16.14
2018-04-30T15:35:50.070Z,16.14
2018-04-30T15:36:50.095Z,16.34
2018-04-30T15:37:50.123Z,16.25
2018-04-30T15:38:50.150Z,16.05
2018-04-30T15:39:50.178Z,15.56
2018-04-30T15:40:50.206Z,15.56
2018-04-30T15:41:50.233Z,15.66
2018-04-30T15:42:50.264Z,15.66
2018-04-30T15:43:50.362Z,15.76
2018-04-30T15:44:50.316Z,15.76
2018-04-30T15:45:50.343Z,15.66
2018-04-30T15:46:50.371Z,15.95
2018-04-30T15:47:50.400Z,15.76